sensor_id;sensor_type;location;lat;lon;timestamp;temperature;humidity
17740;DHT22;8990;33.226;-97.150;2023-04-24T08:55:04;8.00;99.90
17740;DHT22;8990;33.226;-97.150;2023-04-24T09:02:41;8.30;99.90
17740;DHT22;8990;33.226;-97.150;2023-04-24T09:05:11;8.40;99.90
17740;DHT22;8990;33.226;-97.150;2023-04-24T09:07:43;8.40;99.90
17740;DHT22;8990;33.226;-97.150;2023-04-24T09:42:46;8.10;99.90
17740;DHT22;8990;33.226;-97.150;2023-04-24T09:45:23;8.10;99.90
17740;DHT22;8990;33.226;-97.150;2023-04-24T09:47:56;8.00;99.90
17740;DHT22;8990;33.226;-97.150;2023-04-24T09:50:24;7.90;99.90
17740;DHT22;8990;33.226;-97.150;2023-04-24T09:52:57;8.00;99.90
17740;DHT22;8990;33.226;-97.150;2023-04-24T09:55:28;7.80;99.90
17740;DHT22;8990;33.226;-97.150;2023-04-24T09:57:57;7.80;99.90
17740;DHT22;8990;33.226;-97.150;2023-04-24T10:00:30;7.90;99.90
17740;DHT22;8990;33.226;-97.150;2023-04-24T10:03:00;7.80;99.90
17740;DHT22;8990;33.226;-97.150;2023-04-24T10:05:30;8.00;99.90
17740;DHT22;8990;33.226;-97.150;2023-04-24T10:08:01;8.00;99.90
17740;DHT22;8990;33.226;-97.150;2023-04-24T10:10:31;8.10;99.90
17740;DHT22;8990;33.226;-97.150;2023-04-24T10:13:00;8.00;99.90
17740;DHT22;8990;33.226;-97.150;2023-04-24T10:15:31;8.10;99.90
17740;DHT22;8990;33.226;-97.150;2023-04-24T10:18:00;8.00;99.90
17740;DHT22;8990;33.226;-97.150;2023-04-24T10:20:30;8.00;99.90
17740;DHT22;8990;33.226;-97.150;2023-04-24T10:33:03;8.00;99.90
17740;DHT22;8990;33.226;-97.150;2023-04-24T10:35:34;7.90;99.90
17740;DHT22;8990;33.226;-97.150;2023-04-24T10:38:08;7.90;99.90
17740;DHT22;8990;33.226;-97.150;2023-04-24T10:40:37;8.00;99.90
17740;DHT22;8990;33.226;-97.150;2023-04-24T11:44:10;9.30;99.90
17740;DHT22;8990;33.226;-97.150;2023-04-24T11:46:39;9.60;99.90
17740;DHT22;8990;33.226;-97.150;2023-04-24T11:49:08;9.60;99.90
17740;DHT22;8990;33.226;-97.150;2023-04-24T11:51:38;9.50;99.90
17740;DHT22;8990;33.226;-97.150;2023-04-24T11:54:08;9.50;99.90
17740;DHT22;8990;33.226;-97.150;2023-04-24T11:56:37;9.50;99.90
17740;DHT22;8990;33.226;-97.150;2023-04-24T11:59:06;9.60;99.90
17740;DHT22;8990;33.226;-97.150;2023-04-24T12:01:43;9.60;99.90
17740;DHT22;8990;33.226;-97.150;2023-04-24T12:04:13;9.60;99.90
17740;DHT22;8990;33.226;-97.150;2023-04-24T12:07:01;9.60;99.90
17740;DHT22;8990;33.226;-97.150;2023-04-24T12:09:41;9.60;99.90
17740;DHT22;8990;33.226;-97.150;2023-04-24T12:12:12;9.70;99.90
17740;DHT22;8990;33.226;-97.150;2023-04-24T12:14:58;9.60;99.90
17740;DHT22;8990;33.226;-97.150;2023-04-24T12:17:28;9.60;99.90
17740;DHT22;8990;33.226;-97.150;2023-04-24T12:19:58;9.60;99.90
17740;DHT22;8990;33.226;-97.150;2023-04-24T12:22:43;9.70;99.90
17740;DHT22;8990;33.226;-97.150;2023-04-24T12:25:18;9.80;99.90
17740;DHT22;8990;33.226;-97.150;2023-04-24T12:27:52;9.70;99.90
17740;DHT22;8990;33.226;-97.150;2023-04-24T12:30:27;9.80;99.90
17740;DHT22;8990;33.226;-97.150;2023-04-24T12:32:58;9.90;99.90
17740;DHT22;8990;33.226;-97.150;2023-04-24T12:35:28;10.00;99.90
17740;DHT22;8990;33.226;-97.150;2023-04-24T12:38:07;10.00;99.90
17740;DHT22;8990;33.226;-97.150;2023-04-24T12:40:36;10.10;99.90
17740;DHT22;8990;33.226;-97.150;2023-04-24T12:43:13;10.10;99.90
17740;DHT22;8990;33.226;-97.150;2023-04-24T12:45:44;10.10;99.90
17740;DHT22;8990;33.226;-97.150;2023-04-24T12:48:13;10.30;99.90
17740;DHT22;8990;33.226;-97.150;2023-04-24T12:50:42;10.20;99.90
17740;DHT22;8990;33.226;-97.150;2023-04-24T12:53:13;10.30;99.90
17740;DHT22;8990;33.226;-97.150;2023-04-24T12:55:41;10.40;99.90
17740;DHT22;8990;33.226;-97.150;2023-04-24T12:58:11;10.40;99.90
17740;DHT22;8990;33.226;-97.150;2023-04-24T13:00:40;10.60;99.90
17740;DHT22;8990;33.226;-97.150;2023-04-24T13:03:10;10.70;99.90
17740;DHT22;8990;33.226;-97.150;2023-04-24T13:05:38;10.80;99.90
17740;DHT22;8990;33.226;-97.150;2023-04-24T13:08:07;10.90;99.90
17740;DHT22;8990;33.226;-97.150;2023-04-24T13:10:38;10.90;99.90
17740;DHT22;8990;33.226;-97.150;2023-04-24T13:13:07;10.90;99.90
17740;DHT22;8990;33.226;-97.150;2023-04-24T13:15:36;11.00;99.90
17740;DHT22;8990;33.226;-97.150;2023-04-24T13:18:05;11.00;99.90
17740;DHT22;8990;33.226;-97.150;2023-04-24T13:20:34;11.00;99.90
17740;DHT22;8990;33.226;-97.150;2023-04-24T13:23:04;11.00;99.90
17740;DHT22;8990;33.226;-97.150;2023-04-24T13:25:37;11.10;99.90
17740;DHT22;8990;33.226;-97.150;2023-04-24T13:28:06;11.20;99.90
17740;DHT22;8990;33.226;-97.150;2023-04-24T13:30:36;11.40;99.90
17740;DHT22;8990;33.226;-97.150;2023-04-24T13:33:05;11.50;99.90
17740;DHT22;8990;33.226;-97.150;2023-04-24T13:35:34;11.60;99.90
17740;DHT22;8990;33.226;-97.150;2023-04-24T13:38:03;11.70;99.90
17740;DHT22;8990;33.226;-97.150;2023-04-24T13:40:33;11.70;99.90
17740;DHT22;8990;33.226;-97.150;2023-04-24T13:43:04;11.80;99.90
17740;DHT22;8990;33.226;-97.150;2023-04-24T13:45:33;11.80;99.90
17740;DHT22;8990;33.226;-97.150;2023-04-24T13:48:02;12.00;99.90
17740;DHT22;8990;33.226;-97.150;2023-04-24T13:50:30;12.00;99.90
17740;DHT22;8990;33.226;-97.150;2023-04-24T13:52:59;12.20;99.90
17740;DHT22;8990;33.226;-97.150;2023-04-24T13:55:28;12.30;99.90
17740;DHT22;8990;33.226;-97.150;2023-04-24T13:57:57;12.30;99.90
17740;DHT22;8990;33.226;-97.150;2023-04-24T14:00:29;12.30;99.90
17740;DHT22;8990;33.226;-97.150;2023-04-24T14:02:58;12.50;99.90
17740;DHT22;8990;33.226;-97.150;2023-04-24T14:05:27;12.70;99.90
17740;DHT22;8990;33.226;-97.150;2023-04-24T14:07:56;12.90;99.90
17740;DHT22;8990;33.226;-97.150;2023-04-24T14:10:25;12.90;99.90
17740;DHT22;8990;33.226;-97.150;2023-04-24T14:12:54;13.10;99.90
17740;DHT22;8990;33.226;-97.150;2023-04-24T14:15:23;13.30;99.90
17740;DHT22;8990;33.226;-97.150;2023-04-24T14:17:54;13.40;99.90
17740;DHT22;8990;33.226;-97.150;2023-04-24T14:20:23;13.50;99.90
17740;DHT22;8990;33.226;-97.150;2023-04-24T14:22:52;13.50;99.90
17740;DHT22;8990;33.226;-97.150;2023-04-24T14:25:22;13.60;99.90
17740;DHT22;8990;33.226;-97.150;2023-04-24T14:27:51;13.60;99.90
17740;DHT22;8990;33.226;-97.150;2023-04-24T14:30:19;13.70;99.90
17740;DHT22;8990;33.226;-97.150;2023-04-24T14:32:49;13.60;99.90
17740;DHT22;8990;33.226;-97.150;2023-04-24T14:35:19;13.50;99.90
17740;DHT22;8990;33.226;-97.150;2023-04-24T14:37:48;13.50;99.90
17740;DHT22;8990;33.226;-97.150;2023-04-24T14:40:17;13.50;99.90
17740;DHT22;8990;33.226;-97.150;2023-04-24T14:42:46;13.50;99.90
17740;DHT22;8990;33.226;-97.150;2023-04-24T14:45:15;13.60;99.90
17740;DHT22;8990;33.226;-97.150;2023-04-24T14:47:44;13.70;99.90
17740;DHT22;8990;33.226;-97.150;2023-04-24T14:50:13;13.80;99.90
17740;DHT22;8990;33.226;-97.150;2023-04-24T14:52:43;13.90;99.90
17740;DHT22;8990;33.226;-97.150;2023-04-24T14:55:13;14.00;99.90
17740;DHT22;8990;33.226;-97.150;2023-04-24T14:57:43;14.10;99.90
17740;DHT22;8990;33.226;-97.150;2023-04-24T15:00:13;14.10;99.90
17740;DHT22;8990;33.226;-97.150;2023-04-24T15:02:43;14.30;99.90
17740;DHT22;8990;33.226;-97.150;2023-04-24T15:05:12;14.20;99.90
17740;DHT22;8990;33.226;-97.150;2023-04-24T15:07:42;14.50;99.90
17740;DHT22;8990;33.226;-97.150;2023-04-24T15:10:12;14.40;99.90
17740;DHT22;8990;33.226;-97.150;2023-04-24T15:12:41;14.60;99.90
17740;DHT22;8990;33.226;-97.150;2023-04-24T15:15:10;14.80;99.90
17740;DHT22;8990;33.226;-97.150;2023-04-24T15:17:39;14.90;99.90
17740;DHT22;8990;33.226;-97.150;2023-04-24T15:20:09;15.10;99.90
17740;DHT22;8990;33.226;-97.150;2023-04-24T15:22:38;15.20;99.90
17740;DHT22;8990;33.226;-97.150;2023-04-24T15:25:09;15.30;99.90
17740;DHT22;8990;33.226;-97.150;2023-04-24T15:27:43;15.40;99.90
17740;DHT22;8990;33.226;-97.150;2023-04-24T15:30:13;15.60;99.90
17740;DHT22;8990;33.226;-97.150;2023-04-24T15:32:42;15.60;99.90
17740;DHT22;8990;33.226;-97.150;2023-04-24T15:35:11;15.80;99.90
17740;DHT22;8990;33.226;-97.150;2023-04-24T15:37:40;15.90;99.90
17740;DHT22;8990;33.226;-97.150;2023-04-24T15:40:12;15.90;99.90
17740;DHT22;8990;33.226;-97.150;2023-04-24T15:42:43;16.20;99.90
17740;DHT22;8990;33.226;-97.150;2023-04-24T15:45:12;16.30;99.90
17740;DHT22;8990;33.226;-97.150;2023-04-24T15:47:41;16.60;99.90
17740;DHT22;8990;33.226;-97.150;2023-04-24T15:50:10;16.70;99.90
17740;DHT22;8990;33.226;-97.150;2023-04-24T15:52:39;16.60;99.90
17740;DHT22;8990;33.226;-97.150;2023-04-24T15:55:08;16.50;99.90
17740;DHT22;8990;33.226;-97.150;2023-04-24T15:57:39;16.50;99.90
17740;DHT22;8990;33.226;-97.150;2023-04-24T16:00:09;16.70;99.90
17740;DHT22;8990;33.226;-97.150;2023-04-24T16:02:41;16.90;99.90
17740;DHT22;8990;33.226;-97.150;2023-04-24T16:05:10;17.00;99.90
17740;DHT22;8990;33.226;-97.150;2023-04-24T16:07:38;17.10;99.90
17740;DHT22;8990;33.226;-97.150;2023-04-24T16:10:08;17.20;99.90
17740;DHT22;8990;33.226;-97.150;2023-04-24T16:12:39;17.20;99.90
17740;DHT22;8990;33.226;-97.150;2023-04-24T16:15:08;17.10;99.90
17740;DHT22;8990;33.226;-97.150;2023-04-24T16:17:37;17.00;99.90
17740;DHT22;8990;33.226;-97.150;2023-04-24T16:20:07;17.20;99.90
17740;DHT22;8990;33.226;-97.150;2023-04-24T16:22:36;17.20;99.90
17740;DHT22;8990;33.226;-97.150;2023-04-24T16:25:05;17.30;99.90
17740;DHT22;8990;33.226;-97.150;2023-04-24T16:27:35;17.40;99.90
17740;DHT22;8990;33.226;-97.150;2023-04-24T16:30:07;17.60;99.90
17740;DHT22;8990;33.226;-97.150;2023-04-24T16:32:36;17.60;99.90
17740;DHT22;8990;33.226;-97.150;2023-04-24T16:35:06;17.70;99.90
17740;DHT22;8990;33.226;-97.150;2023-04-24T16:37:35;17.70;99.90
17740;DHT22;8990;33.226;-97.150;2023-04-24T16:40:05;17.70;99.90
17740;DHT22;8990;33.226;-97.150;2023-04-24T16:42:37;17.80;99.90
17740;DHT22;8990;33.226;-97.150;2023-04-24T16:45:09;17.90;99.90
17740;DHT22;8990;33.226;-97.150;2023-04-24T16:47:38;18.00;99.90
17740;DHT22;8990;33.226;-97.150;2023-04-24T16:50:07;17.90;99.90
17740;DHT22;8990;33.226;-97.150;2023-04-24T16:52:36;18.00;99.90
17740;DHT22;8990;33.226;-97.150;2023-04-24T16:55:06;18.10;99.90
17740;DHT22;8990;33.226;-97.150;2023-04-24T16:57:35;18.00;99.90
17740;DHT22;8990;33.226;-97.150;2023-04-24T17:00:05;18.10;99.90
17740;DHT22;8990;33.226;-97.150;2023-04-24T17:02:36;18.00;99.90
17740;DHT22;8990;33.226;-97.150;2023-04-24T17:05:06;18.10;99.90
17740;DHT22;8990;33.226;-97.150;2023-04-24T17:07:35;18.20;99.90
17740;DHT22;8990;33.226;-97.150;2023-04-24T17:10:05;18.00;99.90
17740;DHT22;8990;33.226;-97.150;2023-04-24T17:12:35;18.10;99.90
17740;DHT22;8990;33.226;-97.150;2023-04-24T17:15:04;18.10;99.90
17740;DHT22;8990;33.226;-97.150;2023-04-24T17:17:35;18.30;99.90
17740;DHT22;8990;33.226;-97.150;2023-04-24T17:20:04;18.40;99.90
17740;DHT22;8990;33.226;-97.150;2023-04-24T17:22:35;18.50;99.90
17740;DHT22;8990;33.226;-97.150;2023-04-24T17:25:04;18.60;99.90
17740;DHT22;8990;33.226;-97.150;2023-04-24T17:27:33;18.60;99.90
17740;DHT22;8990;33.226;-97.150;2023-04-24T17:30:02;18.70;99.90
17740;DHT22;8990;33.226;-97.150;2023-04-24T17:32:31;18.80;99.90
17740;DHT22;8990;33.226;-97.150;2023-04-24T17:35:02;18.80;99.90
17740;DHT22;8990;33.226;-97.150;2023-04-24T17:37:31;18.90;99.90
17740;DHT22;8990;33.226;-97.150;2023-04-24T17:40:00;19.10;99.90
17740;DHT22;8990;33.226;-97.150;2023-04-24T17:42:30;19.40;99.90
17740;DHT22;8990;33.226;-97.150;2023-04-24T17:44:59;19.70;99.90
17740;DHT22;8990;33.226;-97.150;2023-04-24T17:47:27;19.80;99.90
17740;DHT22;8990;33.226;-97.150;2023-04-24T17:49:56;19.90;99.90
17740;DHT22;8990;33.226;-97.150;2023-04-24T17:52:27;19.70;99.90
17740;DHT22;8990;33.226;-97.150;2023-04-24T17:54:56;19.70;99.90
17740;DHT22;8990;33.226;-97.150;2023-04-24T17:57:25;19.70;99.90
17740;DHT22;8990;33.226;-97.150;2023-04-24T17:59:55;19.40;99.90
17740;DHT22;8990;33.226;-97.150;2023-04-24T18:02:23;19.50;99.90
17740;DHT22;8990;33.226;-97.150;2023-04-24T18:04:52;19.60;99.90
17740;DHT22;8990;33.226;-97.150;2023-04-24T18:07:21;19.60;99.90
17740;DHT22;8990;33.226;-97.150;2023-04-24T18:09:53;19.70;99.90
17740;DHT22;8990;33.226;-97.150;2023-04-24T18:12:22;19.90;99.90
17740;DHT22;8990;33.226;-97.150;2023-04-24T18:14:51;20.10;99.90
17740;DHT22;8990;33.226;-97.150;2023-04-24T18:17:20;20.20;99.90
17740;DHT22;8990;33.226;-97.150;2023-04-24T18:19:49;20.00;99.40
17740;DHT22;8990;33.226;-97.150;2023-04-24T18:22:17;20.00;99.90
17740;DHT22;8990;33.226;-97.150;2023-04-24T18:24:46;19.90;99.90
17740;DHT22;8990;33.226;-97.150;2023-04-24T18:27:17;19.90;99.90
17740;DHT22;8990;33.226;-97.150;2023-04-24T18:29:46;20.00;99.90
17740;DHT22;8990;33.226;-97.150;2023-04-24T18:32:15;19.90;99.90
17740;DHT22;8990;33.226;-97.150;2023-04-24T18:34:44;20.10;99.90
17740;DHT22;8990;33.226;-97.150;2023-04-24T18:37:13;20.20;99.90
17740;DHT22;8990;33.226;-97.150;2023-04-24T18:39:42;20.20;99.90
17740;DHT22;8990;33.226;-97.150;2023-04-24T18:42:11;20.10;99.90
17740;DHT22;8990;33.226;-97.150;2023-04-24T18:44:42;20.20;99.90
17740;DHT22;8990;33.226;-97.150;2023-04-24T18:47:11;20.20;99.90
17740;DHT22;8990;33.226;-97.150;2023-04-24T18:49:40;20.20;99.90
17740;DHT22;8990;33.226;-97.150;2023-04-24T18:52:09;20.30;99.90
17740;DHT22;8990;33.226;-97.150;2023-04-24T18:54:39;20.20;99.90
17740;DHT22;8990;33.226;-97.150;2023-04-24T18:57:08;20.40;99.90
17740;DHT22;8990;33.226;-97.150;2023-04-24T18:59:37;20.30;99.90
17740;DHT22;8990;33.226;-97.150;2023-04-24T19:02:07;20.40;99.90
17740;DHT22;8990;33.226;-97.150;2023-04-24T19:04:37;20.50;99.90
17740;DHT22;8990;33.226;-97.150;2023-04-24T19:07:06;20.70;99.90
17740;DHT22;8990;33.226;-97.150;2023-04-24T19:09:35;20.70;99.90
17740;DHT22;8990;33.226;-97.150;2023-04-24T19:12:04;20.70;99.90
17740;DHT22;8990;33.226;-97.150;2023-04-24T19:14:33;20.60;99.90
17740;DHT22;8990;33.226;-97.150;2023-04-24T19:17:02;20.60;99.90
17740;DHT22;8990;33.226;-97.150;2023-04-24T19:19:32;20.70;99.90
17740;DHT22;8990;33.226;-97.150;2023-04-24T19:22:02;20.60;99.90
17740;DHT22;8990;33.226;-97.150;2023-04-24T19:24:30;20.70;99.90
17740;DHT22;8990;33.226;-97.150;2023-04-24T19:27:00;20.50;99.90
17740;DHT22;8990;33.226;-97.150;2023-04-24T19:29:29;20.70;99.90
17740;DHT22;8990;33.226;-97.150;2023-04-24T19:31:57;20.70;99.90
17740;DHT22;8990;33.226;-97.150;2023-04-24T19:34:26;20.60;99.90
17740;DHT22;8990;33.226;-97.150;2023-04-24T19:36:59;20.70;99.90
17740;DHT22;8990;33.226;-97.150;2023-04-24T19:39:28;20.80;99.90
17740;DHT22;8990;33.226;-97.150;2023-04-24T19:41:59;20.90;99.90
17740;DHT22;8990;33.226;-97.150;2023-04-24T19:44:28;21.00;99.90
17740;DHT22;8990;33.226;-97.150;2023-04-24T19:46:57;20.90;99.90
17740;DHT22;8990;33.226;-97.150;2023-04-24T19:49:26;21.00;99.90
17740;DHT22;8990;33.226;-97.150;2023-04-24T19:51:55;21.00;99.90
17740;DHT22;8990;33.226;-97.150;2023-04-24T19:54:26;21.00;99.90
17740;DHT22;8990;33.226;-97.150;2023-04-24T19:56:54;21.00;99.90
17740;DHT22;8990;33.226;-97.150;2023-04-24T19:59:23;21.00;99.90
17740;DHT22;8990;33.226;-97.150;2023-04-24T20:01:52;21.10;99.90
17740;DHT22;8990;33.226;-97.150;2023-04-24T20:04:21;21.20;99.90
17740;DHT22;8990;33.226;-97.150;2023-04-24T20:06:50;21.30;99.90
17740;DHT22;8990;33.226;-97.150;2023-04-24T20:09:18;21.40;99.90
17740;DHT22;8990;33.226;-97.150;2023-04-24T20:11:49;21.40;99.90
17740;DHT22;8990;33.226;-97.150;2023-04-24T20:14:19;21.50;99.90
17740;DHT22;8990;33.226;-97.150;2023-04-24T20:16:48;21.40;99.90
17740;DHT22;8990;33.226;-97.150;2023-04-24T20:19:17;21.40;99.90
17740;DHT22;8990;33.226;-97.150;2023-04-24T20:21:46;21.50;99.90
17740;DHT22;8990;33.226;-97.150;2023-04-24T20:24:15;21.20;99.90
17740;DHT22;8990;33.226;-97.150;2023-04-24T20:26:44;21.20;99.90
17740;DHT22;8990;33.226;-97.150;2023-04-24T20:29:14;20.90;99.90
17740;DHT22;8990;33.226;-97.150;2023-04-24T20:31:43;20.70;99.90
17740;DHT22;8990;33.226;-97.150;2023-04-24T20:34:15;20.70;99.90
17740;DHT22;8990;33.226;-97.150;2023-04-24T20:36:45;20.60;99.90
17740;DHT22;8990;33.226;-97.150;2023-04-24T20:39:13;20.80;99.90
17740;DHT22;8990;33.226;-97.150;2023-04-24T20:41:43;20.90;99.90
17740;DHT22;8990;33.226;-97.150;2023-04-24T20:44:13;21.10;99.90
17740;DHT22;8990;33.226;-97.150;2023-04-24T20:46:42;21.30;99.90
17740;DHT22;8990;33.226;-97.150;2023-04-24T20:49:11;21.60;99.90
17740;DHT22;8990;33.226;-97.150;2023-04-24T20:51:40;21.80;99.90
17740;DHT22;8990;33.226;-97.150;2023-04-24T20:54:09;21.90;99.90
17740;DHT22;8990;33.226;-97.150;2023-04-24T20:56:38;21.90;99.90
17740;DHT22;8990;33.226;-97.150;2023-04-24T20:59:07;21.80;99.90
17740;DHT22;8990;33.226;-97.150;2023-04-24T21:01:38;21.70;99.90
17740;DHT22;8990;33.226;-97.150;2023-04-24T21:04:07;21.90;99.90
17740;DHT22;8990;33.226;-97.150;2023-04-24T21:06:36;21.90;99.90
17740;DHT22;8990;33.226;-97.150;2023-04-24T21:09:06;21.80;99.90
17740;DHT22;8990;33.226;-97.150;2023-04-24T21:11:35;21.60;99.90
17740;DHT22;8990;33.226;-97.150;2023-04-24T21:14:05;21.70;99.90
17740;DHT22;8990;33.226;-97.150;2023-04-24T21:16:33;21.80;99.90
17740;DHT22;8990;33.226;-97.150;2023-04-24T21:19:04;21.90;99.90
17740;DHT22;8990;33.226;-97.150;2023-04-24T21:21:33;21.90;99.90
17740;DHT22;8990;33.226;-97.150;2023-04-24T21:24:02;21.70;99.90
17740;DHT22;8990;33.226;-97.150;2023-04-24T21:26:31;21.50;99.90
17740;DHT22;8990;33.226;-97.150;2023-04-24T21:29:01;21.40;99.90
17740;DHT22;8990;33.226;-97.150;2023-04-24T21:31:30;21.40;99.90
17740;DHT22;8990;33.226;-97.150;2023-04-24T21:33:59;21.40;99.90
17740;DHT22;8990;33.226;-97.150;2023-04-24T21:36:30;21.40;99.90
17740;DHT22;8990;33.226;-97.150;2023-04-24T21:38:59;21.50;99.90
17740;DHT22;8990;33.226;-97.150;2023-04-24T21:41:28;21.40;99.90
17740;DHT22;8990;33.226;-97.150;2023-04-24T21:43:57;21.50;99.90
17740;DHT22;8990;33.226;-97.150;2023-04-24T21:46:26;21.40;99.90
17740;DHT22;8990;33.226;-97.150;2023-04-24T21:48:55;21.40;99.90
17740;DHT22;8990;33.226;-97.150;2023-04-24T21:51:24;21.30;99.90
17740;DHT22;8990;33.226;-97.150;2023-04-24T21:53:54;21.30;99.90
17740;DHT22;8990;33.226;-97.150;2023-04-24T21:56:23;21.30;99.90
17740;DHT22;8990;33.226;-97.150;2023-04-24T21:58:52;21.20;99.90
17740;DHT22;8990;33.226;-97.150;2023-04-24T22:01:21;21.20;99.90
17740;DHT22;8990;33.226;-97.150;2023-04-24T22:03:50;21.30;99.90
17740;DHT22;8990;33.226;-97.150;2023-04-24T22:06:19;21.30;99.90
17740;DHT22;8990;33.226;-97.150;2023-04-24T22:08:48;21.30;99.90
17740;DHT22;8990;33.226;-97.150;2023-04-24T22:11:19;21.40;99.90
17740;DHT22;8990;33.226;-97.150;2023-04-24T22:13:47;21.30;99.90
17740;DHT22;8990;33.226;-97.150;2023-04-24T22:16:16;21.30;99.90
17740;DHT22;8990;33.226;-97.150;2023-04-24T22:18:45;21.30;99.90
17740;DHT22;8990;33.226;-97.150;2023-04-24T22:21:14;21.30;99.90
17740;DHT22;8990;33.226;-97.150;2023-04-24T22:23:43;21.10;99.90
17740;DHT22;8990;33.226;-97.150;2023-04-24T22:26:12;21.00;99.90
17740;DHT22;8990;33.226;-97.150;2023-04-24T22:28:44;21.00;99.90
17740;DHT22;8990;33.226;-97.150;2023-04-24T22:31:13;21.00;99.90
17740;DHT22;8990;33.226;-97.150;2023-04-24T22:33:42;21.00;99.90
17740;DHT22;8990;33.226;-97.150;2023-04-24T22:36:12;20.90;99.90
17740;DHT22;8990;33.226;-97.150;2023-04-24T22:38:40;20.80;99.90
17740;DHT22;8990;33.226;-97.150;2023-04-24T22:41:10;20.80;99.90
17740;DHT22;8990;33.226;-97.150;2023-04-24T22:43:38;20.80;99.90
17740;DHT22;8990;33.226;-97.150;2023-04-24T22:46:09;20.80;99.90
17740;DHT22;8990;33.226;-97.150;2023-04-24T22:48:38;20.90;99.90
17740;DHT22;8990;33.226;-97.150;2023-04-24T22:51:07;20.80;99.90
17740;DHT22;8990;33.226;-97.150;2023-04-24T22:53:36;20.90;99.90
17740;DHT22;8990;33.226;-97.150;2023-04-24T22:56:05;20.80;99.90
17740;DHT22;8990;33.226;-97.150;2023-04-24T22:58:35;20.80;99.90
17740;DHT22;8990;33.226;-97.150;2023-04-24T23:01:04;20.80;99.90
17740;DHT22;8990;33.226;-97.150;2023-04-24T23:03:35;20.80;99.90
17740;DHT22;8990;33.226;-97.150;2023-04-24T23:06:04;20.80;99.90
17740;DHT22;8990;33.226;-97.150;2023-04-24T23:08:33;20.80;99.90
17740;DHT22;8990;33.226;-97.150;2023-04-24T23:11:02;20.80;99.90
17740;DHT22;8990;33.226;-97.150;2023-04-24T23:13:31;20.80;99.90
17740;DHT22;8990;33.226;-97.150;2023-04-24T23:15:59;20.80;99.90
17740;DHT22;8990;33.226;-97.150;2023-04-24T23:18:28;20.80;99.90
17740;DHT22;8990;33.226;-97.150;2023-04-24T23:20:59;20.70;99.90
17740;DHT22;8990;33.226;-97.150;2023-04-24T23:23:29;20.60;99.90
17740;DHT22;8990;33.226;-97.150;2023-04-24T23:25:59;20.60;99.90
17740;DHT22;8990;33.226;-97.150;2023-04-24T23:28:27;20.50;99.90
17740;DHT22;8990;33.226;-97.150;2023-04-24T23:30:57;20.50;99.90
17740;DHT22;8990;33.226;-97.150;2023-04-24T23:33:25;20.50;99.90
17740;DHT22;8990;33.226;-97.150;2023-04-24T23:35:54;20.40;99.90
17740;DHT22;8990;33.226;-97.150;2023-04-24T23:38:25;20.40;99.90
17740;DHT22;8990;33.226;-97.150;2023-04-24T23:40:55;20.30;99.90
17740;DHT22;8990;33.226;-97.150;2023-04-24T23:43:24;20.30;99.90
17740;DHT22;8990;33.226;-97.150;2023-04-24T23:45:53;20.20;99.90
17740;DHT22;8990;33.226;-97.150;2023-04-24T23:48:23;20.20;99.90
17740;DHT22;8990;33.226;-97.150;2023-04-24T23:50:52;20.20;99.90
17740;DHT22;8990;33.226;-97.150;2023-04-24T23:53:21;20.20;99.90
17740;DHT22;8990;33.226;-97.150;2023-04-24T23:55:52;20.10;99.90
17740;DHT22;8990;33.226;-97.150;2023-04-24T23:58:21;20.10;99.90
